createdAt,value
2023-05-13T05:41:32.442Z,6.16
2023-05-13T05:44:00.373Z,6.44
2023-05-13T05:46:28.401Z,6.51
2023-05-13T05:48:56.316Z,6.36
2023-05-13T05:51:24.217Z,6.23
2023-05-13T05:53:55.260Z,6.51
2023-05-13T05:56:23.107Z,6.37
2023-05-13T05:58:52.368Z,6.26
2023-05-13T06:01:20.400Z,6.50
2023-05-13T06:03:48.409Z,6.97
2023-05-13T06:06:16.263Z,8.78
2023-05-13T06:08:44.177Z,7.47
2023-05-13T06:11:12.008Z,6.65
2023-05-13T06:13:39.854Z,7.22
2023-05-13T06:16:09.203Z,7.20
2023-05-13T06:18:37.124Z,6.94
2023-05-13T06:21:05.441Z,7.25
2023-05-13T06:23:33.356Z,7.31
2023-05-13T06:26:01.172Z,7.29
2023-05-13T06:28:29.053Z,6.98
2023-05-13T06:30:56.962Z,7.29
2023-05-13T06:33:26.285Z,7.20
2023-05-13T06:35:54.251Z,6.82
2023-05-13T06:38:22.129Z,7.33
2023-05-13T06:40:50.006Z,7.35
2023-05-13T06:46:02.838Z,7.16
2023-05-13T06:48:32.102Z,7.12
2023-05-13T06:50:59.936Z,7.13
2023-05-13T06:53:27.797Z,7.32
2023-05-13T06:55:55.816Z,7.36
2023-05-13T06:58:23.813Z,7.93
2023-05-13T07:00:51.703Z,8.50
2023-05-13T07:03:19.690Z,7.61
2023-05-13T07:05:49.015Z,7.15
2023-05-13T07:08:18.049Z,7.28
2023-05-13T07:10:46.325Z,7.53
2023-05-13T07:13:14.342Z,8.65
2023-05-13T07:15:42.596Z,7.75
2023-05-13T07:18:10.449Z,7.58
2023-05-13T07:20:38.542Z,6.96
2023-05-13T07:23:08.065Z,7.22
2023-05-13T07:25:36.143Z,7.17
2023-05-13T07:28:04.311Z,6.88
2023-05-13T07:30:32.264Z,7.10
2023-05-13T07:33:00.542Z,7.37
2023-05-13T07:35:28.494Z,7.12
2023-05-13T07:37:56.412Z,7.61
2023-05-13T07:40:25.793Z,7.06
2023-05-13T07:42:53.965Z,6.87
2023-05-13T07:45:22.247Z,6.87
2023-05-13T07:47:50.378Z,6.84
2023-05-13T07:50:18.462Z,7.78
2023-05-13T07:52:49.109Z,8.10
2023-05-13T07:55:17.112Z,7.92
2023-05-13T07:57:46.432Z,7.40
2023-05-13T08:00:15.525Z,7.09
2023-05-13T08:02:46.286Z,7.90
2023-05-13T08:05:14.163Z,7.63
2023-05-13T08:07:41.990Z,7.92
2023-05-13T08:10:09.968Z,7.74
2023-05-13T08:12:37.849Z,7.29
2023-05-13T08:15:08.821Z,6.91
2023-05-13T08:17:36.725Z,6.76
2023-05-13T08:20:04.989Z,6.91
2023-05-13T08:22:32.890Z,6.49
2023-05-13T08:25:01.188Z,8.12
2023-05-13T08:27:29.113Z,7.24
2023-05-13T08:29:56.964Z,6.88
2023-05-13T08:32:26.252Z,7.13
2023-05-13T08:34:54.186Z,7.57
2023-05-13T08:37:21.998Z,6.91
2023-05-13T08:39:49.912Z,6.28
2023-05-13T08:42:23.895Z,6.02
2023-05-13T08:44:53.675Z,5.94
2023-05-13T08:47:36.692Z,6.35
2023-05-13T08:50:05.599Z,6.74
2023-05-13T08:52:33.759Z,6.69
2023-05-13T08:55:02.565Z,6.48
2023-05-13T08:57:30.426Z,5.87
2023-05-13T08:59:58.297Z,5.73
2023-05-13T09:02:26.835Z,5.60
2023-05-13T09:05:00.939Z,5.45
2023-05-13T09:07:31.670Z,5.32
2023-05-13T09:09:59.879Z,5.26
2023-05-13T09:12:44.100Z,5.32
2023-05-13T09:15:14.250Z,5.04
2023-05-13T09:17:44.018Z,5.10
2023-05-13T09:20:16.229Z,5.69
2023-05-13T09:22:48.481Z,5.22
2023-05-13T09:25:18.018Z,5.08
2023-05-13T09:27:49.048Z,5.27
2023-05-13T09:30:17.432Z,5.35
2023-05-13T09:32:45.382Z,5.24
2023-05-13T09:35:17.600Z,5.23
2023-05-13T09:37:49.400Z,5.51
2023-05-13T09:40:18.892Z,5.54
2023-05-13T09:42:49.706Z,6.78
2023-05-13T09:45:18.829Z,6.62
2023-05-13T09:47:59.534Z,6.85
2023-05-13T09:50:28.715Z,6.03
2023-05-13T09:52:56.572Z,6.68
2023-05-13T09:55:24.553Z,6.17
2023-05-13T09:57:54.527Z,6.00
2023-05-13T10:00:32.184Z,6.44
2023-05-13T10:03:03.063Z,6.52
2023-05-13T10:05:34.119Z,6.52
2023-05-13T10:08:02.795Z,6.61
2023-05-13T10:10:36.769Z,6.46
2023-05-13T10:13:09.208Z,6.70
2023-05-13T10:15:37.338Z,6.86
2023-05-13T10:18:10.948Z,6.87
2023-05-13T10:20:40.552Z,7.01
2023-05-13T10:23:09.368Z,6.63
2023-05-13T10:25:37.542Z,6.52
2023-05-13T10:28:07.110Z,6.82
2023-05-13T10:30:35.904Z,7.93
2023-05-13T10:33:05.487Z,7.27
2023-05-13T10:35:41.948Z,7.09
2023-05-13T10:38:18.573Z,8.36
2023-05-13T10:41:10.247Z,8.21
2023-05-13T10:43:38.353Z,8.08
2023-05-13T10:46:08.305Z,8.36
2023-05-13T10:48:41.705Z,7.89
2023-05-13T10:51:11.393Z,7.52
2023-05-13T10:53:48.094Z,7.10
2023-05-13T10:56:16.251Z,6.47
2023-05-13T10:58:44.145Z,6.15
2023-05-13T11:01:20.007Z,6.35
2023-05-13T11:03:53.983Z,6.42
2023-05-13T11:06:24.243Z,6.11
2023-05-13T11:08:56.091Z,5.97
2023-05-13T11:11:31.259Z,5.86
2023-05-13T11:14:08.803Z,5.76
2023-05-13T11:16:38.409Z,6.53
2023-05-13T11:19:19.436Z,5.94
2023-05-13T11:21:51.122Z,5.83
2023-05-13T11:24:24.490Z,6.22
2023-05-13T11:26:57.280Z,7.18
2023-05-13T11:29:33.423Z,6.68
2023-05-13T11:32:03.120Z,6.42
2023-05-13T11:34:32.031Z,6.73
2023-05-13T11:37:09.654Z,5.93
2023-05-13T11:39:41.687Z,7.80
2023-05-13T11:42:11.152Z,9.15
2023-05-13T11:44:48.934Z,8.35
2023-05-13T11:47:28.115Z,7.48
2023-05-13T11:49:57.216Z,6.86
2023-05-13T11:52:29.340Z,6.18
2023-05-13T11:54:59.106Z,6.09
2023-05-13T11:57:28.565Z,6.45
2023-05-13T11:59:59.050Z,6.04
2023-05-13T12:02:29.354Z,6.18
2023-05-13T12:05:00.498Z,6.02
2023-05-13T12:07:32.473Z,6.21
2023-05-13T12:10:04.190Z,7.45
2023-05-13T12:12:35.844Z,8.35
2023-05-13T12:15:06.220Z,6.84
2023-05-13T12:17:36.148Z,7.10
2023-05-13T12:20:12.936Z,7.05
2023-05-13T12:22:56.929Z,7.69
2023-05-13T12:25:51.334Z,6.34
2023-05-13T12:28:20.961Z,6.28
2023-05-13T12:30:54.459Z,5.78
2023-05-13T12:33:24.133Z,9.50
2023-05-13T12:36:25.496Z,8.35
2023-05-13T12:39:00.246Z,6.40
2023-05-13T12:41:32.492Z,6.38
2023-05-13T12:44:02.019Z,5.92
2023-05-13T12:46:30.407Z,7.17
2023-05-13T12:49:00.466Z,7.42
2023-05-13T12:51:29.653Z,6.03
2023-05-13T12:53:58.406Z,6.63
2023-05-13T12:56:27.411Z,5.78
2023-05-13T12:58:57.085Z,5.62
2023-05-13T13:01:25.052Z,6.22
2023-05-13T13:03:52.962Z,5.33
2023-05-13T13:06:21.134Z,6.50
2023-05-13T13:08:49.008Z,6.68
2023-05-13T13:11:18.954Z,5.70
2023-05-13T13:13:47.452Z,5.88
2023-05-13T13:16:20.012Z,5.92
2023-05-13T13:18:48.030Z,5.23
2023-05-13T13:21:15.880Z,5.98
2023-05-13T13:23:43.822Z,5.32
2023-05-13T13:26:14.566Z,5.38
2023-05-13T13:28:42.401Z,5.98
2023-05-13T13:31:11.802Z,5.46
2023-05-13T13:33:43.855Z,5.90
2023-05-13T13:36:11.793Z,4.61
2023-05-13T13:38:41.795Z,5.09
2023-05-13T13:41:09.558Z,4.94
2023-05-13T13:43:37.756Z,4.88
2023-05-13T13:46:05.665Z,5.15
2023-05-13T13:48:35.948Z,5.28
2023-05-13T13:51:05.438Z,5.20
2023-05-13T13:53:33.300Z,6.20
2023-05-13T13:56:01.163Z,6.07
2023-05-13T13:58:31.845Z,6.43
2023-05-13T14:00:59.646Z,6.65
2023-05-13T14:03:27.652Z,4.85
2023-05-13T14:05:55.967Z,4.77
2023-05-13T14:08:25.250Z,4.68
2023-05-13T14:10:53.546Z,4.25
2023-05-13T14:13:21.622Z,4.45
2023-05-13T14:15:49.408Z,5.05
2023-05-13T14:18:17.428Z,5.19
2023-05-13T14:20:47.453Z,4.38
2023-05-13T14:23:15.339Z,5.00
2023-05-13T14:25:44.607Z,4.28
2023-05-13T14:28:13.268Z,4.22
2023-05-13T14:30:43.217Z,4.55
2023-05-13T14:33:11.151Z,4.10
2023-05-13T14:35:38.989Z,4.10
2023-05-13T14:38:06.781Z,4.10
2023-05-13T14:40:34.981Z,4.38
2023-05-13T14:43:04.171Z,4.74
2023-05-13T14:45:36.599Z,4.58
2023-05-13T14:48:04.652Z,3.85
2023-05-13T14:50:33.027Z,4.25
2023-05-13T14:53:00.858Z,4.30
2023-05-13T14:55:28.694Z,4.14
2023-05-13T14:57:56.587Z,3.96
2023-05-13T15:00:26.362Z,4.39
2023-05-13T15:02:54.540Z,4.00
2023-05-13T15:05:22.862Z,3.86
2023-05-13T15:07:50.791Z,3.73
2023-05-13T15:10:18.798Z,3.35
2023-05-13T15:12:46.708Z,3.41
2023-05-13T15:15:14.715Z,3.37
2023-05-13T15:17:44.042Z,3.20
2023-05-13T15:20:14.814Z,3.11
2023-05-13T15:22:45.747Z,3.55
2023-05-13T15:25:13.607Z,3.71
2023-05-13T15:27:42.851Z,3.67
2023-05-13T15:30:14.432Z,3.72
2023-05-13T15:32:43.770Z,3.19
2023-05-13T15:35:11.625Z,3.40
2023-05-13T15:37:42.645Z,3.81
2023-05-13T15:40:11.295Z,4.74
2023-05-13T15:42:39.086Z,4.65
2023-05-13T15:45:08.054Z,5.02
2023-05-13T15:47:38.843Z,4.53
2023-05-13T15:50:09.020Z,4.03
2023-05-13T15:52:40.136Z,4.73
2023-05-13T15:55:08.557Z,4.28
2023-05-13T15:57:36.607Z,4.22
2023-05-13T16:00:06.058Z,6.69
2023-05-13T16:02:39.915Z,4.22
2023-05-13T16:05:15.305Z,3.67
2023-05-13T16:07:46.612Z,3.38
2023-05-13T16:10:15.340Z,3.35
2023-05-13T16:15:25.073Z,3.20
2023-05-13T16:17:55.677Z,4.23
2023-05-13T16:20:25.255Z,5.24
2023-05-13T16:22:53.256Z,3.83
2023-05-13T16:25:26.122Z,3.29
2023-05-13T16:27:55.046Z,2.67
2023-05-13T16:30:23.255Z,2.75
2023-05-13T16:32:54.515Z,2.66
2023-05-13T16:35:26.778Z,2.69
2023-05-13T16:37:54.635Z,3.11
2023-05-13T16:40:24.692Z,2.67
2023-05-13T16:42:53.232Z,2.68
2023-05-13T16:45:26.378Z,2.73
2023-05-13T16:47:54.285Z,3.02
2023-05-13T16:50:22.677Z,3.12
2023-05-13T16:52:54.620Z,3.07
2023-05-13T16:55:22.621Z,3.29
2023-05-13T16:57:50.517Z,3.53
2023-05-13T17:00:19.214Z,3.47
2023-05-13T17:02:49.688Z,3.33
2023-05-13T17:05:18.560Z,3.52
2023-05-13T17:07:48.562Z,3.26
2023-05-13T17:10:17.752Z,3.17
2023-05-13T17:12:45.548Z,3.26
2023-05-13T17:15:13.461Z,3.41
2023-05-13T17:17:44.187Z,3.67
2023-05-13T17:20:13.098Z,3.63
2023-05-13T17:22:45.328Z,3.08
2023-05-13T17:25:13.177Z,3.27
2023-05-13T17:27:57.453Z,3.77
2023-05-13T17:30:25.499Z,3.04
2023-05-13T17:32:53.403Z,3.18
2023-05-13T17:35:21.343Z,3.25
2023-05-13T17:37:52.300Z,3.50
2023-05-13T17:40:27.330Z,3.60
2023-05-13T17:42:55.162Z,3.26
2023-05-13T17:45:24.409Z,4.18
2023-05-13T17:47:52.313Z,4.64
2023-05-13T17:50:20.426Z,3.90
2023-05-13T17:52:49.064Z,3.68
2023-05-13T17:55:16.993Z,3.16
2023-05-13T17:57:47.939Z,3.13
2023-05-13T18:00:16.568Z,4.03
2023-05-13T18:02:45.797Z,3.74
2023-05-13T18:05:13.903Z,3.93
2023-05-13T18:07:41.768Z,5.58
2023-05-13T18:10:12.629Z,5.14
2023-05-13T18:12:40.663Z,12.47
2023-05-13T18:15:13.104Z,6.02
2023-05-13T18:17:41.078Z,8.61
2023-05-13T18:20:11.241Z,4.65
2023-05-13T18:22:39.120Z,3.65
2023-05-13T18:25:08.171Z,3.48
2023-05-13T18:27:38.403Z,3.59
2023-05-13T18:30:07.092Z,3.39
2023-05-13T18:32:35.021Z,2.74
2023-05-13T18:35:02.936Z,1.24
2023-05-13T18:37:32.114Z,0.74
2023-05-13T18:40:00.049Z,0.31
2023-05-13T18:42:27.965Z,0.39
2023-05-13T18:44:55.755Z,0.27
2023-05-13T18:47:23.648Z,0.22
2023-05-13T18:49:51.490Z,0.16
2023-05-13T18:52:19.282Z,0.76
2023-05-13T18:54:54.458Z,1.00
2023-05-13T18:57:23.726Z,0.90
2023-05-13T18:59:52.221Z,0.32
2023-05-13T19:02:22.759Z,0.61
2023-05-13T19:04:51.138Z,0.21
2023-05-13T19:07:18.979Z,0.47
2023-05-13T19:09:49.591Z,0.46
2023-05-13T19:12:18.818Z,0.41
2023-05-13T19:14:49.814Z,0.44
2023-05-13T19:17:17.884Z,0.43
2023-05-13T19:19:45.844Z,0.51
2023-05-13T19:22:16.428Z,1.07
2023-05-13T19:24:45.170Z,1.08
2023-05-13T19:27:16.059Z,1.06
2023-05-13T19:29:45.254Z,1.17
2023-05-13T19:32:13.073Z,1.93
2023-05-13T19:34:40.965Z,2.56
2023-05-13T19:37:08.853Z,2.58
2023-05-13T19:39:36.720Z,2.69
2023-05-13T19:42:04.690Z,4.18
2023-05-13T19:44:33.899Z,2.88
2023-05-13T19:47:03.301Z,1.17
2023-05-13T19:49:34.381Z,2.66
2023-05-13T19:52:04.448Z,2.84
2023-05-13T19:54:32.302Z,1.68
2023-05-13T19:57:00.290Z,0.84
2023-05-13T19:59:28.113Z,0.69
2023-05-13T20:01:55.983Z,1.25
2023-05-13T20:04:25.238Z,1.13
2023-05-13T22:51:26.870Z,3.17
2023-05-13T22:53:54.717Z,3.68
2023-05-13T22:56:22.746Z,3.81
2023-05-13T22:58:53.576Z,4.39
2023-05-13T23:01:21.560Z,3.22
2023-05-13T23:03:51.107Z,3.27
2023-05-13T23:06:20.372Z,2.12
2023-05-13T23:08:48.199Z,2.18
2023-05-13T23:11:16.005Z,2.92
2023-05-13T23:13:43.848Z,3.41
2023-05-13T23:16:11.777Z,3.62
2023-05-13T23:18:39.977Z,3.99
2023-05-13T23:21:09.011Z,4.39
2023-05-13T23:23:38.273Z,4.82
2023-05-13T23:26:06.580Z,5.42
2023-05-13T23:28:34.763Z,4.35
2023-05-13T23:31:02.664Z,4.53
2023-05-13T23:33:30.558Z,4.85
2023-05-13T23:35:58.420Z,4.57
2023-05-13T23:38:26.381Z,4.79
2023-05-13T23:40:55.611Z,2.49
2023-05-13T23:43:23.409Z,1.83
2023-05-13T23:45:51.343Z,1.84
2023-05-13T23:48:19.291Z,1.77
2023-05-13T23:50:47.150Z,1.61
2023-05-13T23:53:16.199Z,1.40
2023-05-13T23:55:46.397Z,1.26
2023-05-13T23:58:15.819Z,1.22
